^^
Station Historical Data
 
Daily Summary for August 14, 2018 Units:  English    Metric   Both
« Previous Day
Next Day »
Daily Weekly Monthly Yearly Custom
  Current: High: Low: Average:
Temperature: 83.5 °F TemperatureF °F 60.6 °F 68.8 °F
Dew Point: 67.6 °F DewpointF °F 59.4 °F 62 °F
Humidity: 59% Humidity% 46% 81%
Wind Speed: 2mph WindSpeedMPHmph 0mph 0.5mph
Wind Gust: 2mph WindSpeedGustMPHmph - -
WindWest - - South
Pressure: 30.36 in PressureIn in 30.35 in -
Precipitation: 0 in      
Historical Graphs
 
 
Tabular Data for August 14, 2018
Time Temperature Dew Point Pressure Wind Wind Speed Wind Gust Humidity Rainfall Rate (Hourly)
TemperatureF °F DewpointF °F PressureIn in Calm     Humidity% HourlyPrecipIn in
00:13 62.4 °F 61.3 °F 30.43 in Calm     96% 0 in
00:18 62.4 °F 61.3 °F 30.43 in Calm     96% 0 in
00:29 62.2 °F 61.2 °F 30.43 in Calm     96% 0 in
00:34 62.1 °F 61 °F 30.43 in Calm     96% 0 in
00:39 62.1 °F 61 °F 30.43 in Calm     96% 0 in
00:49 62.1 °F 61.2 °F 30.43 in Calm     97% 0 in
00:54 61.9 °F 61 °F 30.43 in Calm     97% 0 in
00:59 61.9 °F 61 °F 30.43 in Calm     97% 0 in
01:04 62.1 °F 61.2 °F 30.43 in Calm   1 mph 97% 0 in
01:09 62.2 °F 61.3 °F 30.43 in Calm     97% 0 in
01:29 62.4 °F 61.5 °F 30.42 in Calm     97% 0 in
01:34 62.2 °F 61.3 °F 30.42 in Calm   1 mph 97% 0 in
01:39 62.2 °F 61.3 °F 30.42 in Calm     97% 0 in
01:44 62.2 °F 61.3 °F 30.42 in Calm     97% 0 in
02:04 62.1 °F 61.2 °F 30.42 in Calm     97% 0 in
02:10 62.1 °F 61.2 °F 30.42 in Calm     97% 0 in
02:20 61.9 °F 61 °F 30.42 in Calm   1 mph 97% 0 in
02:25 61.9 °F 61 °F 30.42 in Calm     97% 0 in
02:30 61.7 °F 60.8 °F 30.41 in Calm   1 mph 97% 0 in
02:35 61.5 °F 60.6 °F 30.41 in Calm   1 mph 97% 0 in
02:45 61.3 °F 60.4 °F 30.41 in Calm     97% 0 in
02:50 61.3 °F 60.4 °F 30.41 in Calm     97% 0 in
02:55 61.3 °F 60.4 °F 30.41 in Calm     97% 0 in
03:00 61.2 °F 60.3 °F 30.41 in Calm   1 mph 97% 0 in
03:05 61.2 °F 60.3 °F 30.41 in Calm     97% 0 in
03:10 61.2 °F 60.3 °F 30.41 in Calm     97% 0 in
03:15 61.2 °F 60.3 °F 30.41 in Calm     97% 0 in
03:20 61.2 °F 60.3 °F 30.41 in Calm     97% 0 in
03:25 61.2 °F 60.3 °F 30.41 in Calm     97% 0 in
03:45 61.3 °F 60.4 °F 30.41 in Calm     97% 0 in
03:50 61.3 °F 60.4 °F 30.41 in Calm     97% 0 in
03:55 61.3 °F 60.4 °F 30.41 in Calm     97% 0 in
04:01 61.3 °F 60.4 °F 30.41 in Calm     97% 0 in
04:06 61.3 °F 60.4 °F 30.41 in Calm     97% 0 in
04:16 61.5 °F 60.6 °F 30.41 in Calm     97% 0 in
04:21 61.3 °F 60.4 °F 30.41 in Calm     97% 0 in
04:26 61.5 °F 60.6 °F 30.41 in Calm     97% 0 in
04:31 61.5 °F 60.6 °F 30.41 in Calm     97% 0 in
04:36 61.3 °F 60.4 °F 30.41 in Calm     97% 0 in
04:41 61.3 °F 60.4 °F 30.41 in Calm     97% 0 in
04:46 61.3 °F 60.4 °F 30.41 in Calm     97% 0 in
04:51 61.3 °F 60.4 °F 30.41 in Calm     97% 0 in
05:01 61.3 °F 60.4 °F 30.41 in Calm     97% 0 in
05:31 61.2 °F 60.1 °F 30.41 in East 0.9 mph 1 mph 96% 0 in
05:36 61.2 °F 60.1 °F 30.40 in Calm   1 mph 96% 0 in
05:41 61 °F 59.9 °F 30.40 in Calm   1 mph 96% 0 in
05:56 61.2 °F 60.1 °F 30.40 in Calm   1 mph 96% 0 in
06:22 61.2 °F 60.1 °F 30.41 in Calm     96% 0 in
06:27 61 °F 59.9 °F 30.41 in Calm     96% 0 in
06:37 61 °F 59.9 °F 30.42 in Calm     96% 0 in
06:42 61 °F 59.9 °F 30.42 in Calm     96% 0 in
06:47 61 °F 59.9 °F 30.42 in Calm   1 mph 96% 0 in
06:52 61 °F 59.9 °F 30.43 in Calm     96% 0 in
06:57 61 °F 59.9 °F 30.43 in Calm     96% 0 in
07:02 61 °F 59.9 °F 30.43 in Calm     96% 0 in
07:07 61 °F 59.9 °F 30.44 in Calm     96% 0 in
07:12 60.6 °F 59.5 °F 30.44 in Calm     96% 0 in
07:17 60.6 °F 59.5 °F 30.44 in Calm     96% 0 in
07:22 60.6 °F 59.5 °F 30.44 in Calm   1 mph 96% 0 in
07:27 60.6 °F 59.5 °F 30.45 in Calm     96% 0 in
07:32 60.6 °F 59.5 °F 30.45 in Calm     96% 0 in
07:37 60.6 °F 59.5 °F 30.45 in Calm     96% 0 in
07:52 60.8 °F 59.4 °F 30.45 in Calm     95% 0 in
07:57 61 °F 59.5 °F 30.45 in Calm     95% 0 in
08:02 61.3 °F 59.9 °F 30.45 in Calm     95% 0 in
08:07 61.5 °F 60.1 °F 30.45 in Calm   1 mph 95% 0 in
08:12 61.9 °F 60.4 °F 30.45 in Calm   1 mph 95% 0 in
08:23 62.1 °F 60.3 °F 30.45 in WNW 0.9 mph 2 mph 94% 0 in
08:28 62.1 °F 60.3 °F 30.45 in Calm   1 mph 94% 0 in
08:33 62.2 °F 60.4 °F 30.45 in Calm   1 mph 94% 0 in
08:38 62.4 °F 60.6 °F 30.45 in Calm   1 mph 94% 0 in
08:48 62.4 °F 60.4 °F 30.45 in ESE 0.9 mph 1 mph 93% 0 in
08:58 63 °F 61 °F 30.45 in Calm   1 mph 93% 0 in
09:03 63.5 °F 61.2 °F 30.45 in Calm   1 mph 92% 0 in
09:13 63.3 °F 61 °F 30.46 in Calm   2 mph 92% 0 in
09:23 63.7 °F 61 °F 30.45 in Calm   1 mph 91% 0 in
09:28 64 °F 61.3 °F 30.45 in Calm     91% 0 in
09:38 64.9 °F 61.7 °F 30.45 in West 0.9 mph 1 mph 89% 0 in
09:48 65.8 °F 62.2 °F 30.45 in Calm   1 mph 88% 0 in
09:53 66.4 °F 62.1 °F 30.45 in WNW 0.9 mph 1 mph 86% 0 in
09:58 67.3 °F 63 °F 30.45 in ESE 2 mph 2 mph 86% 0 in
10:08 68.7 °F 63.3 °F 30.45 in Calm   2 mph 83% 0 in
10:18 69.4 °F 63.7 °F 30.45 in Calm   1 mph 82% 0 in
10:24 70.3 °F 63.9 °F 30.45 in ENE 0.9 mph 2 mph 80% 0 in
10:39 70.3 °F 64.2 °F 30.45 in Calm   3 mph 81% 0 in
10:44 70.5 °F 63.7 °F 30.45 in Calm   2 mph 79% 0 in
10:49 70.7 °F 64.2 °F 30.45 in Calm   1 mph 80% 0 in
11:14 73.2 °F 65.1 °F 30.44 in Calm   3 mph 76% 0 in
11:19 74.1 °F 66.4 °F 30.44 in West 2 mph 2 mph 77% 0 in
11:24 73.8 °F 65.3 °F 30.44 in ESE 2 mph 3 mph 75% 0 in
11:29 73.9 °F 67.1 °F 30.44 in ESE 2 mph 2 mph 79% 0 in
11:39 74.7 °F 66.9 °F 30.44 in SE 0.9 mph 3 mph 77% 0 in
11:44 75 °F 66.9 °F 30.43 in ENE 2.9 mph 3 mph 76% 0 in
11:49 75.4 °F 67.3 °F 30.43 in ESE 2 mph 2 mph 76% 0 in
11:54 75.6 °F 67.1 °F 30.43 in East 2.9 mph 3 mph 75% 0 in
11:59 76.1 °F 68 °F 30.43 in South 0.9 mph 4 mph 76% 0 in
12:04 76.3 °F 67.8 °F 30.43 in East 2.9 mph 4 mph 75% 0 in
12:19 77.5 °F 67.5 °F 30.42 in ESE 0.9 mph 4 mph 71% 0 in
12:24 78.3 °F 68 °F 30.42 in ESE 4 mph 4 mph 71% 0 in
12:55 80.2 °F 66 °F 30.41 in Calm   1 mph 62% 0 in
13:00 81 °F 67.6 °F 30.41 in WNW 0.9 mph 2 mph 64% 0 in
13:05 81.3 °F 67.1 °F 30.40 in SW 0.9 mph 1 mph 62% 0 in
13:10 81.7 °F 64.9 °F 30.40 in Calm   3 mph 57% 0 in
13:30 81.9 °F 59.7 °F 30.40 in Calm   5 mph 47% 0 in
13:35 82 °F 62.6 °F 30.40 in West 2 mph 4 mph 52% 0 in
13:55 82.8 °F 60.4 °F 30.39 in WNW 4 mph 5 mph 47% 0 in
14:00 82.8 °F 59.9 °F 30.39 in SE 0.9 mph 5 mph 46% 0 in
14:10 83.1 °F 62.6 °F 30.39 in Calm   3 mph 50% 0 in
14:15 82.9 °F 62.4 °F 30.39 in Calm   2 mph 50% 0 in
14:35 83.8 °F 66 °F 30.38 in West 2 mph 2 mph 55% 0 in
14:40 84.2 °F 63.5 °F 30.38 in Calm   4 mph 50% 0 in
14:46 84 °F 65.7 °F 30.38 in WSW 4 mph 5 mph 54% 0 in
14:56 83.1 °F 63.7 °F 30.37 in ENE 2 mph 4 mph 52% 0 in
15:16 82.8 °F 68.4 °F 30.37 in Calm   4 mph 62% 0 in
15:21 84.4 °F 65.3 °F 30.36 in NW 0.9 mph 1 mph 53% 0 in
15:26 84 °F 63.9 °F 30.37 in SE 2 mph 4 mph 51% 0 in
15:31 83.8 °F 64.9 °F 30.36 in West 0.9 mph 4 mph 53% 0 in
15:36 83.8 °F 64.9 °F 30.36 in West 0.9 mph 4 mph 53% 0 in
15:41 83.5 °F 64 °F 30.36 in Calm   2 mph 52% 0 in
15:46 83.5 °F 63.5 °F 30.36 in Calm   4 mph 51% 0 in
15:51 84.2 °F 64 °F 30.36 in WNW 2 mph 3 mph 51% 0 in
15:56 84 °F 64.6 °F 30.36 in Calm   4 mph 52% 0 in
16:01 83.7 °F 64.2 °F 30.36 in WSW 2 mph 3 mph 52% 0 in
16:06 84 °F 64.6 °F 30.35 in Calm   1 mph 52% 0 in
16:11 84.4 °F 67.5 °F 30.35 in Calm   1 mph 57% 0 in
16:16 84.4 °F 67.5 °F 30.35 in Calm   4 mph 57% 0 in
16:21 84.7 °F 64 °F 30.35 in WSW 0.9 mph 1 mph 50% 0 in
16:26 84.6 °F 68.7 °F 30.35 in Calm   2 mph 59% 0 in
16:31 84.7 °F 63.5 °F 30.35 in ESE 2 mph 4 mph 49% 0 in
16:41 83.7 °F 65.3 °F 30.35 in West 4 mph 5 mph 54% 0 in
16:46 82.6 °F 64.8 °F 30.35 in ENE 2.9 mph 4 mph 55% 0 in
16:56 80.1 °F 67.6 °F 30.36 in Calm   1 mph 66% 0 in
17:01 80.4 °F 69.3 °F 30.36 in Calm     69% 0 in
17:16 82.9 °F 68.2 °F 30.35 in Calm   1 mph 61% 0 in
17:21 83.8 °F 64.4 °F 30.35 in ENE 4 mph 6 mph 52% 0 in
17:26 84.2 °F 66.2 °F 30.35 in Calm   1 mph 55% 0 in
17:42 83.5 °F 67.6 °F 30.36 in West 2 mph 2 mph 59% 0 in
WheeWeather.com
Compliments of Weather Underground - 1.75 mb